sensor_id;sensor_type;location;lat;lon;timestamp;pressure;altitude;pressure_sealevel;temperature;humidity
10618;BME280;5356;43.526;26.534;2023-07-13T00:00:38;99084.84;;;24.97;100.00
10618;BME280;5356;43.526;26.534;2023-07-13T00:03:04;99079.38;;;24.97;100.00
10618;BME280;5356;43.526;26.534;2023-07-13T00:05:30;99085.78;;;25.01;100.00
10618;BME280;5356;43.526;26.534;2023-07-13T00:07:56;99071.03;;;25.02;100.00
10618;BME280;5356;43.526;26.534;2023-07-13T00:10:22;99075.22;;;25.08;100.00
10618;BME280;5356;43.526;26.534;2023-07-13T00:12:48;99074.91;;;25.09;100.00
10618;BME280;5356;43.526;26.534;2023-07-13T00:15:20;99079.22;;;25.02;100.00
10618;BME280;5356;43.526;26.534;2023-07-13T00:17:57;99068.94;;;24.99;100.00
10618;BME280;5356;43.526;26.534;2023-07-13T00:20:23;99064.28;;;24.91;100.00
10618;BME280;5356;43.526;26.534;2023-07-13T00:22:51;99065.09;;;24.91;100.00
10618;BME280;5356;43.526;26.534;2023-07-13T00:25:19;99074.38;;;24.90;100.00
10618;BME280;5356;43.526;26.534;2023-07-13T00:27:44;99073.59;;;24.90;100.00
10618;BME280;5356;43.526;26.534;2023-07-13T00:30:11;99059.97;;;24.90;100.00
10618;BME280;5356;43.526;26.534;2023-07-13T00:32:37;99069.56;;;24.87;100.00
10618;BME280;5356;43.526;26.534;2023-07-13T00:35:03;99065.56;;;24.84;100.00
10618;BME280;5356;43.526;26.534;2023-07-13T00:37:29;99063.97;;;24.83;100.00
10618;BME280;5356;43.526;26.534;2023-07-13T00:39:55;99053.69;;;24.80;100.00
10618;BME280;5356;43.526;26.534;2023-07-13T00:42:20;99053.84;;;24.84;100.00
10618;BME280;5356;43.526;26.534;2023-07-13T00:47:29;99051.59;;;24.77;100.00
10618;BME280;5356;43.526;26.534;2023-07-13T00:49:55;99045.81;;;24.79;100.00
10618;BME280;5356;43.526;26.534;2023-07-13T00:52:20;99047.44;;;24.80;100.00
10618;BME280;5356;43.526;26.534;2023-07-13T00:54:46;99049.53;;;24.83;100.00
10618;BME280;5356;43.526;26.534;2023-07-13T00:57:17;99049.97;;;24.76;100.00
10618;BME280;5356;43.526;26.534;2023-07-13T00:59:48;99049.34;;;24.79;100.00
10618;BME280;5356;43.526;26.534;2023-07-13T01:02:15;99042.59;;;24.77;100.00
10618;BME280;5356;43.526;26.534;2023-07-13T01:04:41;99040.22;;;24.75;100.00
10618;BME280;5356;43.526;26.534;2023-07-13T01:07:10;99040.22;;;24.75;100.00
10618;BME280;5356;43.526;26.534;2023-07-13T01:09:37;99037.50;;;24.75;100.00
10618;BME280;5356;43.526;26.534;2023-07-13T01:12:03;99039.22;;;24.71;100.00
10618;BME280;5356;43.526;26.534;2023-07-13T01:14:29;99031.38;;;24.70;100.00
10618;BME280;5356;43.526;26.534;2023-07-13T01:16:54;99028.81;;;24.73;100.00
10618;BME280;5356;43.526;26.534;2023-07-13T01:22:02;99043.72;;;24.67;100.00
10618;BME280;5356;43.526;26.534;2023-07-13T01:24:28;99035.53;;;24.67;100.00
10618;BME280;5356;43.526;26.534;2023-07-13T01:26:54;99030.22;;;24.62;100.00
10618;BME280;5356;43.526;26.534;2023-07-13T01:29:21;99031.84;;;24.63;100.00
10618;BME280;5356;43.526;26.534;2023-07-13T01:31:46;99032.31;;;24.65;100.00
10618;BME280;5356;43.526;26.534;2023-07-13T01:34:12;99031.38;;;24.61;100.00
10618;BME280;5356;43.526;26.534;2023-07-13T01:36:38;99024.75;;;24.53;100.00
10618;BME280;5356;43.526;26.534;2023-07-13T01:39:04;99032.94;;;24.53;100.00
10618;BME280;5356;43.526;26.534;2023-07-13T01:41:29;99032.31;;;24.56;100.00
10618;BME280;5356;43.526;26.534;2023-07-13T01:43:55;99033.72;;;24.54;100.00
10618;BME280;5356;43.526;26.534;2023-07-13T01:46:20;99028.78;;;24.56;100.00
10618;BME280;5356;43.526;26.534;2023-07-13T01:48:46;99029.72;;;24.51;100.00
10618;BME280;5356;43.526;26.534;2023-07-13T01:51:11;99031.97;;;24.49;100.00
10618;BME280;5356;43.526;26.534;2023-07-13T01:53:37;99038.53;;;24.48;100.00
10618;BME280;5356;43.526;26.534;2023-07-13T01:56:02;99040.78;;;24.46;100.00
10618;BME280;5356;43.526;26.534;2023-07-13T01:58:28;99034.50;;;24.46;100.00
10618;BME280;5356;43.526;26.534;2023-07-13T02:00:53;99038.69;;;24.43;100.00
10618;BME280;5356;43.526;26.534;2023-07-13T02:03:19;99035.63;;;24.45;100.00
10618;BME280;5356;43.526;26.534;2023-07-13T02:05:45;99047.94;;;24.42;100.00
10618;BME280;5356;43.526;26.534;2023-07-13T02:08:11;99049.84;;;24.41;100.00
10618;BME280;5356;43.526;26.534;2023-07-13T02:10:37;99036.25;;;24.41;100.00
10618;BME280;5356;43.526;26.534;2023-07-13T02:13:05;99042.22;;;24.44;100.00
10618;BME280;5356;43.526;26.534;2023-07-13T02:15:30;99051.44;;;24.42;100.00
10618;BME280;5356;43.526;26.534;2023-07-13T02:17:55;99043.59;;;24.41;100.00
10618;BME280;5356;43.526;26.534;2023-07-13T02:20:22;99047.09;;;24.33;100.00
10618;BME280;5356;43.526;26.534;2023-07-13T02:22:47;99054.28;;;24.29;100.00
10618;BME280;5356;43.526;26.534;2023-07-13T02:25:13;99049.00;;;24.24;100.00
10618;BME280;5356;43.526;26.534;2023-07-13T02:27:39;99055.03;;;24.12;100.00
10618;BME280;5356;43.526;26.534;2023-07-13T02:30:05;99049.22;;;24.05;100.00
10618;BME280;5356;43.526;26.534;2023-07-13T02:32:31;99060.38;;;24.03;100.00
10618;BME280;5356;43.526;26.534;2023-07-13T02:34:57;99056.88;;;24.03;100.00
10618;BME280;5356;43.526;26.534;2023-07-13T02:37:22;99050.09;;;23.91;100.00
10618;BME280;5356;43.526;26.534;2023-07-13T02:39:48;99055.84;;;23.90;100.00
10618;BME280;5356;43.526;26.534;2023-07-13T02:42:13;99055.53;;;23.91;100.00
10618;BME280;5356;43.526;26.534;2023-07-13T02:44:39;99055.53;;;23.91;100.00
10618;BME280;5356;43.526;26.534;2023-07-13T02:47:04;99057.94;;;23.93;100.00
10618;BME280;5356;43.526;26.534;2023-07-13T02:49:30;99060.16;;;23.91;100.00
10618;BME280;5356;43.526;26.534;2023-07-13T02:51:56;99055.81;;;23.81;100.00
10618;BME280;5356;43.526;26.534;2023-07-13T02:54:21;99048.06;;;23.74;100.00
10618;BME280;5356;43.526;26.534;2023-07-13T02:56:47;99051.19;;;23.68;100.00
10618;BME280;5356;43.526;26.534;2023-07-13T02:59:12;99046.06;;;23.66;100.00
10618;BME280;5356;43.526;26.534;2023-07-13T03:01:38;99056.63;;;23.68;100.00
10618;BME280;5356;43.526;26.534;2023-07-13T03:04:03;99054.41;;;23.70;100.00
10618;BME280;5356;43.526;26.534;2023-07-13T03:06:31;99056.03;;;23.71;100.00
10618;BME280;5356;43.526;26.534;2023-07-13T03:08:57;99061.78;;;23.69;100.00
10618;BME280;5356;43.526;26.534;2023-07-13T03:11:22;99062.56;;;23.70;100.00
10618;BME280;5356;43.526;26.534;2023-07-13T03:13:48;99055.50;;;23.69;100.00
10618;BME280;5356;43.526;26.534;2023-07-13T03:16:14;99056.63;;;23.68;100.00
10618;BME280;5356;43.526;26.534;2023-07-13T03:18:41;99058.84;;;23.66;100.00
10618;BME280;5356;43.526;26.534;2023-07-13T03:21:07;99055.84;;;23.67;100.00
10618;BME280;5356;43.526;26.534;2023-07-13T03:23:32;99062.28;;;23.71;100.00
10618;BME280;5356;43.526;26.534;2023-07-13T03:26:07;99060.88;;;23.74;100.00
10618;BME280;5356;43.526;26.534;2023-07-13T03:28:34;99060.91;;;23.83;100.00
10618;BME280;5356;43.526;26.534;2023-07-13T03:31:05;99060.00;;;23.87;100.00
10618;BME280;5356;43.526;26.534;2023-07-13T03:33:31;99062.72;;;23.87;100.00
10618;BME280;5356;43.526;26.534;2023-07-13T03:35:57;99067.38;;;23.87;100.00
10618;BME280;5356;43.526;26.534;2023-07-13T03:38:22;99064.81;;;23.90;100.00
10618;BME280;5356;43.526;26.534;2023-07-13T03:40:48;99057.16;;;23.92;100.00
10618;BME280;5356;43.526;26.534;2023-07-13T03:43:14;99058.25;;;23.91;100.00
10618;BME280;5356;43.526;26.534;2023-07-13T03:45:39;99064.19;;;23.93;100.00
10618;BME280;5356;43.526;26.534;2023-07-13T03:48:05;99078.41;;;23.90;100.00
10618;BME280;5356;43.526;26.534;2023-07-13T03:50:31;99061.16;;;23.95;100.00
10618;BME280;5356;43.526;26.534;2023-07-13T03:52:57;99067.28;;;24.01;100.00
10618;BME280;5356;43.526;26.534;2023-07-13T03:55:23;99059.78;;;24.06;100.00
10618;BME280;5356;43.526;26.534;2023-07-13T03:57:57;99061.88;;;24.09;100.00
10618;BME280;5356;43.526;26.534;2023-07-13T04:00:24;99064.28;;;24.11;100.00
10618;BME280;5356;43.526;26.534;2023-07-13T04:02:49;99067.50;;;24.13;100.00
10618;BME280;5356;43.526;26.534;2023-07-13T04:05:15;99059.84;;;24.15;100.00
10618;BME280;5356;43.526;26.534;2023-07-13T04:07:41;99064.66;;;24.18;100.00
10618;BME280;5356;43.526;26.534;2023-07-13T04:10:07;99066.06;;;24.15;100.00
10618;BME280;5356;43.526;26.534;2023-07-13T04:12:32;99063.66;;;24.14;100.00
10618;BME280;5356;43.526;26.534;2023-07-13T04:14:58;99063.03;;;24.17;100.00
10618;BME280;5356;43.526;26.534;2023-07-13T04:17:23;99070.09;;;24.18;100.00
10618;BME280;5356;43.526;26.534;2023-07-13T04:19:49;99075.59;;;24.27;100.00
10618;BME280;5356;43.526;26.534;2023-07-13T04:22:14;99074.47;;;24.28;100.00
10618;BME280;5356;43.526;26.534;2023-07-13T04:24:40;99072.56;;;24.37;100.00
10618;BME280;5356;43.526;26.534;2023-07-13T04:27:06;99078.50;;;24.39;100.00
10618;BME280;5356;43.526;26.534;2023-07-13T04:29:32;99071.78;;;24.36;100.00
10618;BME280;5356;43.526;26.534;2023-07-13T04:31:57;99080.06;;;24.31;100.00
10618;BME280;5356;43.526;26.534;2023-07-13T04:34:23;99083.66;;;24.40;100.00
10618;BME280;5356;43.526;26.534;2023-07-13T04:36:49;99077.88;;;24.42;100.00
10618;BME280;5356;43.526;26.534;2023-07-13T04:39:15;99066.09;;;24.47;100.00
10618;BME280;5356;43.526;26.534;2023-07-13T04:41:41;99071.88;;;24.54;100.00
10618;BME280;5356;43.526;26.534;2023-07-13T04:44:06;99071.22;;;24.57;100.00
10618;BME280;5356;43.526;26.534;2023-07-13T04:46:32;99074.94;;;24.61;100.00
10618;BME280;5356;43.526;26.534;2023-07-13T04:48:57;99079.28;;;24.62;100.00
10618;BME280;5356;43.526;26.534;2023-07-13T04:51:24;99076.41;;;24.67;100.00
10618;BME280;5356;43.526;26.534;2023-07-13T04:53:49;99075.78;;;24.79;100.00
10618;BME280;5356;43.526;26.534;2023-07-13T04:56:14;99078.06;;;24.85;100.00
10618;BME280;5356;43.526;26.534;2023-07-13T04:58:40;99075.50;;;24.89;100.00
10618;BME280;5356;43.526;26.534;2023-07-13T05:01:06;99077.63;;;25.01;100.00
10618;BME280;5356;43.526;26.534;2023-07-13T05:03:32;99080.34;;;25.09;100.00
10618;BME280;5356;43.526;26.534;2023-07-13T05:06:00;99074.44;;;25.16;100.00
10618;BME280;5356;43.526;26.534;2023-07-13T05:08:25;99082.97;;;25.23;100.00
10618;BME280;5356;43.526;26.534;2023-07-13T05:10:52;99085.06;;;25.35;100.00
10618;BME280;5356;43.526;26.534;2023-07-13T05:13:18;99078.66;;;25.48;100.00
10618;BME280;5356;43.526;26.534;2023-07-13T05:15:44;99073.19;;;25.57;100.00
10618;BME280;5356;43.526;26.534;2023-07-13T05:18:09;99088.75;;;25.65;100.00
10618;BME280;5356;43.526;26.534;2023-07-13T05:20:35;99082.94;;;25.75;100.00
10618;BME280;5356;43.526;26.534;2023-07-13T05:23:00;99084.38;;;25.82;100.00
10618;BME280;5356;43.526;26.534;2023-07-13T05:25:25;99092.28;;;25.83;100.00
10618;BME280;5356;43.526;26.534;2023-07-13T05:27:51;99087.94;;;25.91;100.00
10618;BME280;5356;43.526;26.534;2023-07-13T05:30:17;99090.31;;;26.01;100.00
10618;BME280;5356;43.526;26.534;2023-07-13T05:32:43;99098.03;;;26.08;100.00
10618;BME280;5356;43.526;26.534;2023-07-13T05:35:08;99093.50;;;26.20;100.00
10618;BME280;5356;43.526;26.534;2023-07-13T05:37:34;99093.16;;;26.31;100.00
10618;BME280;5356;43.526;26.534;2023-07-13T05:40:00;99092.31;;;26.39;100.00
10618;BME280;5356;43.526;26.534;2023-07-13T05:42:25;99103.69;;;26.50;100.00
10618;BME280;5356;43.526;26.534;2023-07-13T05:44:51;99107.34;;;26.62;100.00
10618;BME280;5356;43.526;26.534;2023-07-13T05:47:16;99101.53;;;26.73;100.00
10618;BME280;5356;43.526;26.534;2023-07-13T05:49:42;99099.06;;;26.80;100.00
10618;BME280;5356;43.526;26.534;2023-07-13T05:52:08;99098.69;;;26.90;100.00
10618;BME280;5356;43.526;26.534;2023-07-13T05:54:34;99103.78;;;27.00;100.00
10618;BME280;5356;43.526;26.534;2023-07-13T05:56:59;99100.66;;;27.10;100.00
10618;BME280;5356;43.526;26.534;2023-07-13T05:59:25;99096.91;;;27.24;100.00
10618;BME280;5356;43.526;26.534;2023-07-13T06:01:51;99102.44;;;27.36;100.00
10618;BME280;5356;43.526;26.534;2023-07-13T06:04:18;99098.84;;;27.44;100.00
10618;BME280;5356;43.526;26.534;2023-07-13T06:06:43;99093.09;;;27.58;100.00
10618;BME280;5356;43.526;26.534;2023-07-13T06:09:08;99100.09;;;27.68;100.00
10618;BME280;5356;43.526;26.534;2023-07-13T06:11:34;99100.47;;;27.79;100.00
10618;BME280;5356;43.526;26.534;2023-07-13T06:14:00;99092.81;;;27.93;100.00
10618;BME280;5356;43.526;26.534;2023-07-13T06:16:25;99101.41;;;28.04;100.00
10618;BME280;5356;43.526;26.534;2023-07-13T06:18:51;99101.56;;;28.19;100.00
10618;BME280;5356;43.526;26.534;2023-07-13T06:21:18;99094.47;;;28.31;100.00
10618;BME280;5356;43.526;26.534;2023-07-13T06:23:45;99094.84;;;28.41;100.00
10618;BME280;5356;43.526;26.534;2023-07-13T06:26:13;99098.31;;;28.51;100.00
10618;BME280;5356;43.526;26.534;2023-07-13T06:28:38;99104.03;;;28.58;100.00
10618;BME280;5356;43.526;26.534;2023-07-13T06:31:09;99102.91;;;28.71;100.00
10618;BME280;5356;43.526;26.534;2023-07-13T06:33:35;99102.19;;;28.86;100.00
10618;BME280;5356;43.526;26.534;2023-07-13T06:36:03;99097.16;;;29.01;100.00
10618;BME280;5356;43.526;26.534;2023-07-13T06:38:30;99101.75;;;29.09;100.00
10618;BME280;5356;43.526;26.534;2023-07-13T06:40:55;99099.44;;;29.23;100.00
10618;BME280;5356;43.526;26.534;2023-07-13T06:43:21;99101.00;;;29.37;100.00
10618;BME280;5356;43.526;26.534;2023-07-13T06:45:47;99101.44;;;29.51;100.00
10618;BME280;5356;43.526;26.534;2023-07-13T06:48:18;99097.25;;;29.69;100.00
10618;BME280;5356;43.526;26.534;2023-07-13T06:50:44;99102.81;;;29.85;100.00
10618;BME280;5356;43.526;26.534;2023-07-13T06:53:11;99101.25;;;30.00;100.00
10618;BME280;5356;43.526;26.534;2023-07-13T06:55:37;99101.44;;;30.07;100.00
10618;BME280;5356;43.526;26.534;2023-07-13T06:58:03;99101.34;;;30.19;100.00
10618;BME280;5356;43.526;26.534;2023-07-13T07:00:28;99106.81;;;30.32;100.00
10618;BME280;5356;43.526;26.534;2023-07-13T07:02:54;99106.28;;;30.42;97.98
10618;BME280;5356;43.526;26.534;2023-07-13T07:05:19;99100.25;;;30.52;98.42
10618;BME280;5356;43.526;26.534;2023-07-13T07:07:48;99107.63;;;30.64;96.53
10618;BME280;5356;43.526;26.534;2023-07-13T07:10:13;99096.44;;;30.73;95.18
10618;BME280;5356;43.526;26.534;2023-07-13T07:12:39;99105.56;;;30.93;96.69
10618;BME280;5356;43.526;26.534;2023-07-13T07:15:05;99104.66;;;31.04;95.30
10618;BME280;5356;43.526;26.534;2023-07-13T07:17:30;99108.81;;;31.14;93.84
10618;BME280;5356;43.526;26.534;2023-07-13T07:19:56;99113.22;;;31.19;92.37
10618;BME280;5356;43.526;26.534;2023-07-13T07:22:21;99114.72;;;31.32;93.20
10618;BME280;5356;43.526;26.534;2023-07-13T07:24:46;99106.41;;;31.48;92.29
10618;BME280;5356;43.526;26.534;2023-07-13T07:27:12;99098.75;;;31.57;89.73
10618;BME280;5356;43.526;26.534;2023-07-13T07:29:38;99099.81;;;31.72;89.65
10618;BME280;5356;43.526;26.534;2023-07-13T07:32:03;99098.75;;;31.76;87.97
10618;BME280;5356;43.526;26.534;2023-07-13T07:34:30;99096.16;;;31.87;89.02
10618;BME280;5356;43.526;26.534;2023-07-13T07:36:59;99101.19;;;32.01;87.53
10618;BME280;5356;43.526;26.534;2023-07-13T07:39:25;99083.38;;;32.18;88.03
10618;BME280;5356;43.526;26.534;2023-07-13T07:41:51;99092.63;;;32.29;86.22
10618;BME280;5356;43.526;26.534;2023-07-13T07:44:16;99095.50;;;32.36;85.30
10618;BME280;5356;43.526;26.534;2023-07-13T07:46:41;99096.38;;;32.40;84.13
10618;BME280;5356;43.526;26.534;2023-07-13T07:49:07;99091.84;;;32.52;83.19
10618;BME280;5356;43.526;26.534;2023-07-13T07:51:32;99087.19;;;32.56;80.13
10618;BME280;5356;43.526;26.534;2023-07-13T07:53:58;99094.75;;;32.59;76.47
10618;BME280;5356;43.526;26.534;2023-07-13T07:56:23;99090.09;;;32.67;74.58
10618;BME280;5356;43.526;26.534;2023-07-13T07:58:49;99083.50;;;32.71;74.59
10618;BME280;5356;43.526;26.534;2023-07-13T08:01:14;99078.94;;;32.82;74.38
10618;BME280;5356;43.526;26.534;2023-07-13T08:03:41;99085.56;;;33.01;73.69
10618;BME280;5356;43.526;26.534;2023-07-13T08:06:07;99093.28;;;33.18;73.88
10618;BME280;5356;43.526;26.534;2023-07-13T08:08:32;99095.31;;;33.25;73.70
10618;BME280;5356;43.526;26.534;2023-07-13T08:11:02;99090.28;;;33.30;73.28
10618;BME280;5356;43.526;26.534;2023-07-13T08:13:28;99089.25;;;33.42;72.45
10618;BME280;5356;43.526;26.534;2023-07-13T08:15:53;99083.00;;;33.49;73.01
10618;BME280;5356;43.526;26.534;2023-07-13T08:18:19;99088.66;;;33.56;72.15
10618;BME280;5356;43.526;26.534;2023-07-13T08:20:45;99080.00;;;33.58;72.31
10618;BME280;5356;43.526;26.534;2023-07-13T08:23:11;99080.81;;;33.62;70.02
10618;BME280;5356;43.526;26.534;2023-07-13T08:25:36;99084.47;;;33.69;69.82
10618;BME280;5356;43.526;26.534;2023-07-13T08:28:03;99079.34;;;33.71;67.13
10618;BME280;5356;43.526;26.534;2023-07-13T08:30:29;99082.25;;;33.86;67.66
10618;BME280;5356;43.526;26.534;2023-07-13T08:32:54;99084.31;;;33.92;66.45
10618;BME280;5356;43.526;26.534;2023-07-13T08:35:19;99081.53;;;33.89;65.75
10618;BME280;5356;43.526;26.534;2023-07-13T08:37:45;99084.44;;;34.03;67.48
10618;BME280;5356;43.526;26.534;2023-07-13T08:40:11;99085.00;;;34.19;66.26
10618;BME280;5356;43.526;26.534;2023-07-13T08:42:39;99081.19;;;34.35;65.62
10618;BME280;5356;43.526;26.534;2023-07-13T08:47:38;99089.63;;;34.53;63.69
10618;BME280;5356;43.526;26.534;2023-07-13T08:50:05;99081.88;;;34.66;64.20
10618;BME280;5356;43.526;26.534;2023-07-13T08:52:36;99097.72;;;34.76;64.22
10618;BME280;5356;43.526;26.534;2023-07-13T08:55:18;99099.72;;;34.75;63.01
10618;BME280;5356;43.526;26.534;2023-07-13T08:57:46;99083.16;;;34.82;63.73
10618;BME280;5356;43.526;26.534;2023-07-13T09:00:14;99079.97;;;34.80;60.40
10618;BME280;5356;43.526;26.534;2023-07-13T09:02:54;99087.50;;;34.80;60.06
10618;BME280;5356;43.526;26.534;2023-07-13T09:05:28;99076.09;;;34.92;58.23
10618;BME280;5356;43.526;26.534;2023-07-13T09:13:55;99077.09;;;35.25;56.89
10618;BME280;5356;43.526;26.534;2023-07-13T09:16:24;99078.31;;;35.27;55.71
10618;BME280;5356;43.526;26.534;2023-07-13T09:18:52;99077.53;;;35.30;55.82
10618;BME280;5356;43.526;26.534;2023-07-13T09:21:24;99075.59;;;35.45;55.36
10618;BME280;5356;43.526;26.534;2023-07-13T09:23:56;99061.44;;;35.68;55.57
10618;BME280;5356;43.526;26.534;2023-07-13T09:26:24;99062.66;;;35.74;53.90
10618;BME280;5356;43.526;26.534;2023-07-13T09:28:53;99055.16;;;35.86;52.36
10618;BME280;5356;43.526;26.534;2023-07-13T09:31:34;99056.38;;;35.95;52.30
10618;BME280;5356;43.526;26.534;2023-07-13T09:34:01;99054.78;;;36.02;50.90
10618;BME280;5356;43.526;26.534;2023-07-13T09:36:29;99048.03;;;35.88;49.89
10618;BME280;5356;43.526;26.534;2023-07-13T09:39:18;99052.78;;;35.95;50.40
10618;BME280;5356;43.526;26.534;2023-07-13T09:44:17;99062.75;;;36.14;49.65
10618;BME280;5356;43.526;26.534;2023-07-13T09:46:45;99054.44;;;36.28;48.96
10618;BME280;5356;43.526;26.534;2023-07-13T09:49:12;99053.63;;;36.42;48.63
10618;BME280;5356;43.526;26.534;2023-07-13T09:51:41;99050.09;;;36.56;48.28
10618;BME280;5356;43.526;26.534;2023-07-13T09:54:21;99044.50;;;36.63;48.48
10618;BME280;5356;43.526;26.534;2023-07-13T09:56:56;99050.88;;;36.53;47.13
10618;BME280;5356;43.526;26.534;2023-07-13T09:59:26;99043.31;;;36.50;47.60
10618;BME280;5356;43.526;26.534;2023-07-13T10:01:52;99046.09;;;36.57;47.96
10618;BME280;5356;43.526;26.534;2023-07-13T10:04:18;99053.22;;;36.65;48.09
10618;BME280;5356;43.526;26.534;2023-07-13T10:06:45;99052.44;;;36.75;48.04
10618;BME280;5356;43.526;26.534;2023-07-13T10:09:16;99046.44;;;36.88;48.09
10618;BME280;5356;43.526;26.534;2023-07-13T10:11:41;99048.03;;;36.92;47.97
10618;BME280;5356;43.526;26.534;2023-07-13T10:14:21;99053.19;;;36.83;46.87
10618;BME280;5356;43.526;26.534;2023-07-13T10:16:49;99058.34;;;36.92;46.43
10618;BME280;5356;43.526;26.534;2023-07-13T10:19:22;99053.97;;;37.05;45.47
10618;BME280;5356;43.526;26.534;2023-07-13T10:21:57;99061.09;;;37.13;44.10
10618;BME280;5356;43.526;26.534;2023-07-13T10:24:29;99053.13;;;37.19;43.65
10618;BME280;5356;43.526;26.534;2023-07-13T10:29:34;99052.22;;;37.43;43.49
10618;BME280;5356;43.526;26.534;2023-07-13T10:32:01;99050.63;;;37.46;43.78
10618;BME280;5356;43.526;26.534;2023-07-13T10:34:27;99043.09;;;37.43;42.24
10618;BME280;5356;43.526;26.534;2023-07-13T10:36:53;99041.13;;;37.40;42.97
10618;BME280;5356;43.526;26.534;2023-07-13T10:39:27;99035.53;;;37.47;42.67
10618;BME280;5356;43.526;26.534;2023-07-13T10:42:16;99027.19;;;37.54;42.70
10618;BME280;5356;43.526;26.534;2023-07-13T10:44:45;99035.50;;;37.58;42.90
10618;BME280;5356;43.526;26.534;2023-07-13T10:47:15;99037.03;;;37.69;42.59
10618;BME280;5356;43.526;26.534;2023-07-13T10:49:42;99037.00;;;37.77;42.48
10618;BME280;5356;43.526;26.534;2023-07-13T10:55:02;99036.81;;;38.02;41.87
10618;BME280;5356;43.526;26.534;2023-07-13T10:57:28;99033.69;;;37.96;41.37
10618;BME280;5356;43.526;26.534;2023-07-13T11:00:17;99039.66;;;37.94;40.82
10618;BME280;5356;43.526;26.534;2023-07-13T11:02:43;99044.44;;;37.87;41.86
10618;BME280;5356;43.526;26.534;2023-07-13T11:07:56;99047.63;;;37.89;41.84
10618;BME280;5356;43.526;26.534;2023-07-13T11:16:57;99055.38;;;37.52;42.16
10618;BME280;5356;43.526;26.534;2023-07-13T11:21:31;99038.31;;;37.47;42.27
10618;BME280;5356;43.526;26.534;2023-07-13T11:24:03;99033.91;;;37.60;41.51
10618;BME280;5356;43.526;26.534;2023-07-13T11:31:39;99013.09;;;37.79;41.33
10618;BME280;5356;43.526;26.534;2023-07-13T11:34:12;99004.28;;;37.95;41.29
10618;BME280;5356;43.526;26.534;2023-07-13T11:36:42;98996.34;;;37.97;39.99
10618;BME280;5356;43.526;26.534;2023-07-13T11:39:24;98995.44;;;38.11;40.30
10618;BME280;5356;43.526;26.534;2023-07-13T11:42:01;98987.69;;;38.29;40.88
10618;BME280;5356;43.526;26.534;2023-07-13T11:44:30;98993.59;;;38.35;40.04
10618;BME280;5356;43.526;26.534;2023-07-13T11:46:57;99000.00;;;38.32;40.00
10618;BME280;5356;43.526;26.534;2023-07-13T11:49:28;98986.22;;;38.17;38.39
10618;BME280;5356;43.526;26.534;2023-07-13T11:51:55;98996.84;;;38.30;39.67
10618;BME280;5356;43.526;26.534;2023-07-13T11:54:30;98974.13;;;38.35;39.16
10618;BME280;5356;43.526;26.534;2023-07-13T11:57:00;98985.41;;;38.21;39.01
10618;BME280;5356;43.526;26.534;2023-07-13T11:59:27;98987.47;;;38.09;38.62
10618;BME280;5356;43.526;26.534;2023-07-13T12:01:55;98972.66;;;38.23;39.08
10618;BME280;5356;43.526;26.534;2023-07-13T12:04:25;98965.78;;;38.35;38.59
10618;BME280;5356;43.526;26.534;2023-07-13T12:07:05;98971.19;;;38.53;39.22
10618;BME280;5356;43.526;26.534;2023-07-13T12:09:31;98969.88;;;38.65;39.06
10618;BME280;5356;43.526;26.534;2023-07-13T12:11:58;98974.38;;;38.89;39.20
10618;BME280;5356;43.526;26.534;2023-07-13T12:14:26;98972.44;;;38.86;38.67
10618;BME280;5356;43.526;26.534;2023-07-13T12:16:52;98970.03;;;38.88;38.53
10618;BME280;5356;43.526;26.534;2023-07-13T12:19:22;98967.06;;;39.02;38.73
10618;BME280;5356;43.526;26.534;2023-07-13T12:21:52;98959.03;;;39.08;38.37
10618;BME280;5356;43.526;26.534;2023-07-13T12:24:20;98948.09;;;39.21;38.01
10618;BME280;5356;43.526;26.534;2023-07-13T12:26:59;98944.81;;;39.29;38.32
10618;BME280;5356;43.526;26.534;2023-07-13T12:29:26;98960.34;;;39.31;37.70
10618;BME280;5356;43.526;26.534;2023-07-13T12:31:52;98951.00;;;39.44;37.57
10618;BME280;5356;43.526;26.534;2023-07-13T12:34:22;98945.56;;;39.61;37.00
10618;BME280;5356;43.526;26.534;2023-07-13T12:36:52;98940.16;;;39.73;36.78
10618;BME280;5356;43.526;26.534;2023-07-13T12:39:33;98943.50;;;39.65;36.65
10618;BME280;5356;43.526;26.534;2023-07-13T12:42:21;98943.13;;;39.63;36.74
10618;BME280;5356;43.526;26.534;2023-07-13T12:45:23;98936.75;;;39.62;36.38
10618;BME280;5356;43.526;26.534;2023-07-13T12:47:53;98936.75;;;39.89;36.45
10618;BME280;5356;43.526;26.534;2023-07-13T12:50:21;98934.13;;;40.02;35.95
10618;BME280;5356;43.526;26.534;2023-07-13T12:53:02;98938.75;;;40.12;35.97
10618;BME280;5356;43.526;26.534;2023-07-13T12:55:29;98928.50;;;40.29;35.37
10618;BME280;5356;43.526;26.534;2023-07-13T12:57:59;98935.00;;;40.43;34.96
10618;BME280;5356;43.526;26.534;2023-07-13T13:00:31;98937.59;;;40.10;34.89
10618;BME280;5356;43.526;26.534;2023-07-13T13:03:30;98933.81;;;39.96;34.80
10618;BME280;5356;43.526;26.534;2023-07-13T13:08:47;98926.91;;;40.05;34.55
10618;BME280;5356;43.526;26.534;2023-07-13T13:11:14;98926.56;;;40.26;34.59
10618;BME280;5356;43.526;26.534;2023-07-13T13:13:41;98923.72;;;40.50;34.33
10618;BME280;5356;43.526;26.534;2023-07-13T13:18:54;98920.63;;;40.44;34.05
10618;BME280;5356;43.526;26.534;2023-07-13T13:21:24;98930.16;;;40.47;33.24
10618;BME280;5356;43.526;26.534;2023-07-13T13:23:50;98923.72;;;40.50;33.38
10618;BME280;5356;43.526;26.534;2023-07-13T13:26:23;98927.34;;;40.47;33.50
10618;BME280;5356;43.526;26.534;2023-07-13T13:28:49;98935.09;;;40.39;33.59
10618;BME280;5356;43.526;26.534;2023-07-13T13:31:15;98925.22;;;40.54;33.12
10618;BME280;5356;43.526;26.534;2023-07-13T13:33:41;98927.75;;;40.69;33.09
10618;BME280;5356;43.526;26.534;2023-07-13T13:36:19;98930.47;;;40.72;33.16
10618;BME280;5356;43.526;26.534;2023-07-13T13:38:48;98930.16;;;40.87;32.86
10618;BME280;5356;43.526;26.534;2023-07-13T13:41:14;98920.41;;;40.95;32.85